sensor_id;sensor_type;location;lat;lon;timestamp;pressure;altitude;pressure_sealevel;temperature;humidity
9474;BME280;8865;47.636;7.692;2024-01-16T00:02:01;97864.75;;;-2.75;100.00
9474;BME280;8865;47.636;7.692;2024-01-16T00:04:28;97867.00;;;-2.67;100.00
9474;BME280;8865;47.636;7.692;2024-01-16T00:06:55;97862.78;;;-2.68;100.00
9474;BME280;8865;47.636;7.692;2024-01-16T00:09:22;97857.31;;;-2.81;100.00
9474;BME280;8865;47.636;7.692;2024-01-16T00:11:49;97863.38;;;-2.83;100.00
9474;BME280;8865;47.636;7.692;2024-01-16T00:14:15;97874.09;;;-2.96;100.00
9474;BME280;8865;47.636;7.692;2024-01-16T00:16:45;97860.00;;;-3.08;100.00
9474;BME280;8865;47.636;7.692;2024-01-16T00:19:12;97865.91;;;-3.06;100.00
9474;BME280;8865;47.636;7.692;2024-01-16T00:21:42;97860.41;;;-3.18;100.00
9474;BME280;8865;47.636;7.692;2024-01-16T00:24:08;97862.19;;;-3.20;100.00
9474;BME280;8865;47.636;7.692;2024-01-16T00:26:35;97864.88;;;-3.24;100.00
9474;BME280;8865;47.636;7.692;2024-01-16T00:29:01;97861.28;;;-3.19;100.00
9474;BME280;8865;47.636;7.692;2024-01-16T00:31:27;97864.88;;;-3.24;100.00
9474;BME280;8865;47.636;7.692;2024-01-16T00:33:53;97861.13;;;-3.15;100.00
9474;BME280;8865;47.636;7.692;2024-01-16T00:36:20;97865.06;;;-3.06;100.00
9474;BME280;8865;47.636;7.692;2024-01-16T00:38:46;97870.19;;;-3.06;100.00
9474;BME280;8865;47.636;7.692;2024-01-16T00:41:13;97868.72;;;-3.12;100.00
9474;BME280;8865;47.636;7.692;2024-01-16T00:43:43;97865.34;;;-3.14;100.00
9474;BME280;8865;47.636;7.692;2024-01-16T00:46:09;97867.44;;;-3.24;100.00
9474;BME280;8865;47.636;7.692;2024-01-16T00:48:35;97863.72;;;-3.16;100.00
9474;BME280;8865;47.636;7.692;2024-01-16T00:51:01;97863.78;;;-3.18;100.00
9474;BME280;8865;47.636;7.692;2024-01-16T00:53:27;97871.53;;;-3.19;100.00
9474;BME280;8865;47.636;7.692;2024-01-16T00:55:53;97860.41;;;-3.18;100.00
9474;BME280;8865;47.636;7.692;2024-01-16T00:58:23;97863.41;;;-3.31;100.00
9474;BME280;8865;47.636;7.692;2024-01-16T01:00:49;97867.88;;;-3.36;100.00
9474;BME280;8865;47.636;7.692;2024-01-16T01:03:15;97867.97;;;-3.39;100.00
9474;BME280;8865;47.636;7.692;2024-01-16T01:05:41;97867.63;;;-3.53;100.00
9474;BME280;8865;47.636;7.692;2024-01-16T01:08:07;97871.09;;;-3.54;100.00
9474;BME280;8865;47.636;7.692;2024-01-16T01:10:34;97865.69;;;-3.47;100.00
9474;BME280;8865;47.636;7.692;2024-01-16T01:13:00;97864.06;;;-3.49;100.00
9474;BME280;8865;47.636;7.692;2024-01-16T01:15:26;97866.78;;;-3.54;100.00
9474;BME280;8865;47.636;7.692;2024-01-16T01:17:52;97870.25;;;-3.55;100.00
9474;BME280;8865;47.636;7.692;2024-01-16T01:20:20;97872.63;;;-3.50;100.00
9474;BME280;8865;47.636;7.692;2024-01-16T01:22:46;97871.31;;;-3.61;100.00
9474;BME280;8865;47.636;7.692;2024-01-16T01:25:12;97872.56;;;-3.49;100.00
9474;BME280;8865;47.636;7.692;2024-01-16T01:27:39;97882.66;;;-3.44;100.00
9474;BME280;8865;47.636;7.692;2024-01-16T01:30:07;97873.97;;;-3.40;100.00
9474;BME280;8865;47.636;7.692;2024-01-16T01:32:35;97876.09;;;-3.51;100.00
9474;BME280;8865;47.636;7.692;2024-01-16T01:35:02;97881.34;;;-3.54;100.00
9474;BME280;8865;47.636;7.692;2024-01-16T01:37:28;97879.66;;;-3.55;100.00
9474;BME280;8865;47.636;7.692;2024-01-16T01:39:54;97883.25;;;-3.61;100.00
9474;BME280;8865;47.636;7.692;2024-01-16T01:42:20;97887.50;;;-3.60;100.00
9474;BME280;8865;47.636;7.692;2024-01-16T01:44:47;97884.25;;;-3.65;100.00
9474;BME280;8865;47.636;7.692;2024-01-16T01:47:13;97885.50;;;-3.77;100.00
9474;BME280;8865;47.636;7.692;2024-01-16T01:49:40;97888.84;;;-3.75;100.00
9474;BME280;8865;47.636;7.692;2024-01-16T01:52:07;97888.03;;;-3.75;100.00
9474;BME280;8865;47.636;7.692;2024-01-16T01:54:35;97891.50;;;-3.78;100.00
9474;BME280;8865;47.636;7.692;2024-01-16T01:57:02;97893.25;;;-3.79;100.00
9474;BME280;8865;47.636;7.692;2024-01-16T01:59:30;97895.66;;;-3.74;100.00
9474;BME280;8865;47.636;7.692;2024-01-16T02:01:56;97892.63;;;-3.85;100.00
9474;BME280;8865;47.636;7.692;2024-01-16T02:04:24;97894.28;;;-3.84;100.00
9474;BME280;8865;47.636;7.692;2024-01-16T02:06:50;97895.09;;;-3.82;100.00
9474;BME280;8865;47.636;7.692;2024-01-16T02:09:16;97893.19;;;-3.77;100.00
9474;BME280;8865;47.636;7.692;2024-01-16T02:11:43;97881.06;;;-3.72;100.00
9474;BME280;8865;47.636;7.692;2024-01-16T02:14:09;97883.84;;;-3.78;100.00
9474;BME280;8865;47.636;7.692;2024-01-16T02:16:36;97883.84;;;-3.78;100.00
9474;BME280;8865;47.636;7.692;2024-01-16T02:19:07;97874.56;;;-3.81;100.00
9474;BME280;8865;47.636;7.692;2024-01-16T02:21:41;97875.66;;;-3.88;100.00
9474;BME280;8865;47.636;7.692;2024-01-16T02:24:08;97876.13;;;-4.02;100.00
9474;BME280;8865;47.636;7.692;2024-01-16T02:26:35;97869.31;;;-4.03;100.00
9474;BME280;8865;47.636;7.692;2024-01-16T02:29:01;97871.31;;;-4.11;100.00
9474;BME280;8865;47.636;7.692;2024-01-16T02:31:31;97869.63;;;-4.12;100.00
9474;BME280;8865;47.636;7.692;2024-01-16T02:33:58;97861.94;;;-4.12;100.00
9474;BME280;8865;47.636;7.692;2024-01-16T02:36:25;97853.97;;;-4.03;100.00
9474;BME280;8865;47.636;7.692;2024-01-16T02:38:51;97852.53;;;-4.10;100.00
9474;BME280;8865;47.636;7.692;2024-01-16T02:41:17;97857.44;;;-4.04;100.00
9474;BME280;8865;47.636;7.692;2024-01-16T02:43:44;97863.47;;;-4.06;100.00
9474;BME280;8865;47.636;7.692;2024-01-16T02:46:10;97857.66;;;-4.10;100.00
9474;BME280;8865;47.636;7.692;2024-01-16T02:48:37;97861.91;;;-4.10;100.00
9474;BME280;8865;47.636;7.692;2024-01-16T02:51:04;97869.78;;;-4.17;100.00
9474;BME280;8865;47.636;7.692;2024-01-16T02:53:31;97863.69;;;-4.13;100.00
9474;BME280;8865;47.636;7.692;2024-01-16T02:55:57;97854.06;;;-4.06;100.00
9474;BME280;8865;47.636;7.692;2024-01-16T02:58:27;97848.09;;;-4.05;100.00
9474;BME280;8865;47.636;7.692;2024-01-16T03:00:54;97852.78;;;-4.18;100.00
9474;BME280;8865;47.636;7.692;2024-01-16T03:03:20;97865.56;;;-4.18;100.00
9474;BME280;8865;47.636;7.692;2024-01-16T03:05:49;97868.06;;;-4.16;100.00
9474;BME280;8865;47.636;7.692;2024-01-16T03:08:16;97852.03;;;-4.21;100.00
9474;BME280;8865;47.636;7.692;2024-01-16T03:10:42;97847.63;;;-4.16;100.00
9474;BME280;8865;47.636;7.692;2024-01-16T03:13:08;97860.50;;;-4.19;100.00
9474;BME280;8865;47.636;7.692;2024-01-16T03:15:34;97846.81;;;-4.18;100.00
9474;BME280;8865;47.636;7.692;2024-01-16T03:18:00;97856.06;;;-4.14;100.00
9474;BME280;8865;47.636;7.692;2024-01-16T03:20:27;97854.44;;;-4.17;100.00
9474;BME280;8865;47.636;7.692;2024-01-16T03:22:54;97858.88;;;-4.22;100.00
9474;BME280;8865;47.636;7.692;2024-01-16T03:25:21;97854.38;;;-4.15;100.00
9474;BME280;8865;47.636;7.692;2024-01-16T03:27:47;97853.41;;;-4.11;100.00
9474;BME280;8865;47.636;7.692;2024-01-16T03:30:13;97851.06;;;-4.17;100.00
9474;BME280;8865;47.636;7.692;2024-01-16T03:32:39;97852.22;;;-4.27;100.00
9474;BME280;8865;47.636;7.692;2024-01-16T03:35:06;97846.44;;;-4.33;100.00
9474;BME280;8865;47.636;7.692;2024-01-16T03:37:33;97844.00;;;-4.36;100.00
9474;BME280;8865;47.636;7.692;2024-01-16T03:40:00;97849.31;;;-4.42;100.00
9474;BME280;8865;47.636;7.692;2024-01-16T03:42:26;97843.78;;;-4.56;100.00
9474;BME280;8865;47.636;7.692;2024-01-16T03:44:52;97836.81;;;-4.51;100.00
9474;BME280;8865;47.636;7.692;2024-01-16T03:47:19;97833.31;;;-4.49;100.00
9474;BME280;8865;47.636;7.692;2024-01-16T03:49:45;97835.03;;;-4.49;100.00
9474;BME280;8865;47.636;7.692;2024-01-16T03:52:11;97833.50;;;-4.55;100.00
9474;BME280;8865;47.636;7.692;2024-01-16T03:54:37;97835.81;;;-4.47;100.00
9474;BME280;8865;47.636;7.692;2024-01-16T03:57:04;97832.34;;;-4.44;100.00
9474;BME280;8865;47.636;7.692;2024-01-16T03:59:30;97827.38;;;-4.49;100.00
9474;BME280;8865;47.636;7.692;2024-01-16T04:01:56;97833.47;;;-4.53;100.00
9474;BME280;8865;47.636;7.692;2024-01-16T04:04:22;97834.06;;;-4.45;100.00
9474;BME280;8865;47.636;7.692;2024-01-16T04:06:48;97831.72;;;-4.51;100.00
9474;BME280;8865;47.636;7.692;2024-01-16T04:09:14;97822.47;;;-4.55;100.00
9474;BME280;8865;47.636;7.692;2024-01-16T04:11:41;97822.22;;;-4.47;100.00
9474;BME280;8865;47.636;7.692;2024-01-16T04:14:07;97823.22;;;-4.53;100.00
9474;BME280;8865;47.636;7.692;2024-01-16T04:16:33;97821.38;;;-4.48;100.00
9474;BME280;8865;47.636;7.692;2024-01-16T04:18:59;97818.94;;;-4.51;100.00
9474;BME280;8865;47.636;7.692;2024-01-16T04:21:25;97807.91;;;-4.53;100.00
9474;BME280;8865;47.636;7.692;2024-01-16T04:23:52;97814.53;;;-4.47;100.00
9474;BME280;8865;47.636;7.692;2024-01-16T04:26:18;97815.41;;;-4.49;100.00
9474;BME280;8865;47.636;7.692;2024-01-16T04:28:44;97817.31;;;-4.54;100.00
9474;BME280;8865;47.636;7.692;2024-01-16T04:31:10;97813.22;;;-4.59;100.00
9474;BME280;8865;47.636;7.692;2024-01-16T04:33:37;97809.69;;;-4.55;100.00
9474;BME280;8865;47.636;7.692;2024-01-16T04:36:05;97804.78;;;-4.61;100.00
9474;BME280;8865;47.636;7.692;2024-01-16T04:38:31;97808.34;;;-4.67;100.00
9474;BME280;8865;47.636;7.692;2024-01-16T04:41:01;97800.47;;;-4.61;100.00
9474;BME280;8865;47.636;7.692;2024-01-16T04:43:27;97801.63;;;-4.70;100.00
9474;BME280;8865;47.636;7.692;2024-01-16T04:45:53;97795.63;;;-4.69;100.00
9474;BME280;8865;47.636;7.692;2024-01-16T04:48:19;97808.25;;;-4.64;100.00
9474;BME280;8865;47.636;7.692;2024-01-16T04:50:46;97794.13;;;-4.74;100.00
9474;BME280;8865;47.636;7.692;2024-01-16T04:53:12;97796.06;;;-4.82;100.00
9474;BME280;8865;47.636;7.692;2024-01-16T04:55:38;97793.41;;;-4.79;100.00
9474;BME280;8865;47.636;7.692;2024-01-16T04:58:04;97792.69;;;-4.83;100.00
9474;BME280;8865;47.636;7.692;2024-01-16T05:00:31;97783.44;;;-4.87;100.00
9474;BME280;8865;47.636;7.692;2024-01-16T05:02:58;97781.78;;;-4.88;100.00
9474;BME280;8865;47.636;7.692;2024-01-16T05:05:24;97783.78;;;-4.98;100.00
9474;BME280;8865;47.636;7.692;2024-01-16T05:07:50;97785.66;;;-5.03;100.00
9474;BME280;8865;47.636;7.692;2024-01-16T05:10:17;97777.88;;;-5.00;100.00
9474;BME280;8865;47.636;7.692;2024-01-16T05:12:43;97773.03;;;-5.08;100.00
9474;BME280;8865;47.636;7.692;2024-01-16T05:15:09;97776.72;;;-5.18;100.00
9474;BME280;8865;47.636;7.692;2024-01-16T05:17:37;97762.44;;;-5.24;100.00
9474;BME280;8865;47.636;7.692;2024-01-16T05:20:04;97774.50;;;-5.29;100.00
9474;BME280;8865;47.636;7.692;2024-01-16T05:22:30;97778.78;;;-5.29;100.00
9474;BME280;8865;47.636;7.692;2024-01-16T05:24:57;97781.59;;;-5.39;100.00
9474;BME280;8865;47.636;7.692;2024-01-16T05:27:23;97774.97;;;-5.44;100.00
9474;BME280;8865;47.636;7.692;2024-01-16T05:29:49;97778.16;;;-5.38;100.00
9474;BME280;8865;47.636;7.692;2024-01-16T05:32:15;97770.69;;;-5.44;100.00
9474;BME280;8865;47.636;7.692;2024-01-16T05:34:42;97766.44;;;-5.43;100.00
9474;BME280;8865;47.636;7.692;2024-01-16T05:37:09;97764.09;;;-5.51;100.00
9474;BME280;8865;47.636;7.692;2024-01-16T05:39:35;97760.47;;;-5.44;100.00
9474;BME280;8865;47.636;7.692;2024-01-16T05:42:02;97759.78;;;-5.49;100.00
9474;BME280;8865;47.636;7.692;2024-01-16T05:44:28;97762.38;;;-5.50;100.00
9474;BME280;8865;47.636;7.692;2024-01-16T05:46:54;97761.56;;;-5.51;100.00
9474;BME280;8865;47.636;7.692;2024-01-16T05:49:20;97760.59;;;-5.48;100.00
9474;BME280;8865;47.636;7.692;2024-01-16T05:51:47;97768.66;;;-5.62;100.00
9474;BME280;8865;47.636;7.692;2024-01-16T05:54:13;97767.81;;;-5.61;100.00
9474;BME280;8865;47.636;7.692;2024-01-16T05:56:39;97770.25;;;-5.58;100.00
9474;BME280;8865;47.636;7.692;2024-01-16T05:59:05;97769.47;;;-5.60;100.00
9474;BME280;8865;47.636;7.692;2024-01-16T06:01:33;97758.38;;;-5.59;100.00
9474;BME280;8865;47.636;7.692;2024-01-16T06:03:59;97769.34;;;-5.56;100.00
9474;BME280;8865;47.636;7.692;2024-01-16T06:06:25;97759.00;;;-5.51;100.00
9474;BME280;8865;47.636;7.692;2024-01-16T06:08:52;97754.78;;;-5.52;100.00
9474;BME280;8865;47.636;7.692;2024-01-16T06:11:18;97769.81;;;-5.43;100.00
9474;BME280;8865;47.636;7.692;2024-01-16T06:13:46;97765.72;;;-5.48;100.00
9474;BME280;8865;47.636;7.692;2024-01-16T06:16:12;97767.41;;;-5.47;100.00
9474;BME280;8865;47.636;7.692;2024-01-16T06:18:38;97759.78;;;-5.49;100.00
9474;BME280;8865;47.636;7.692;2024-01-16T06:21:04;97761.56;;;-5.51;100.00
9474;BME280;8865;47.636;7.692;2024-01-16T06:23:30;97760.59;;;-5.48;100.00
9474;BME280;8865;47.636;7.692;2024-01-16T06:25:56;97763.94;;;-5.45;100.00
9474;BME280;8865;47.636;7.692;2024-01-16T06:28:22;97760.97;;;-5.61;100.00
9474;BME280;8865;47.636;7.692;2024-01-16T06:30:48;97756.84;;;-5.65;100.00
9474;BME280;8865;47.636;7.692;2024-01-16T06:33:14;97751.00;;;-5.68;100.00
9474;BME280;8865;47.636;7.692;2024-01-16T06:35:40;97751.03;;;-5.70;100.00
9474;BME280;8865;47.636;7.692;2024-01-16T06:38:06;97748.38;;;-5.67;100.00
9474;BME280;8865;47.636;7.692;2024-01-16T06:40:32;97737.44;;;-5.70;100.00
9474;BME280;8865;47.636;7.692;2024-01-16T06:42:59;97735.59;;;-5.65;100.00
9474;BME280;8865;47.636;7.692;2024-01-16T06:45:25;97742.97;;;-5.56;100.00
9474;BME280;8865;47.636;7.692;2024-01-16T06:47:52;97736.69;;;-5.44;100.00
9474;BME280;8865;47.636;7.692;2024-01-16T06:50:18;97739.00;;;-5.36;100.00
9474;BME280;8865;47.636;7.692;2024-01-16T06:52:45;97731.25;;;-5.33;100.00
9474;BME280;8865;47.636;7.692;2024-01-16T06:55:11;97729.13;;;-5.19;100.00
9474;BME280;8865;47.636;7.692;2024-01-16T06:57:37;97727.59;;;-5.25;100.00
9474;BME280;8865;47.636;7.692;2024-01-16T07:00:04;97719.88;;;-5.23;100.00
9474;BME280;8865;47.636;7.692;2024-01-16T07:02:33;97719.09;;;-5.25;100.00
9474;BME280;8865;47.636;7.692;2024-01-16T07:04:58;97730.34;;;-5.31;100.00
9474;BME280;8865;47.636;7.692;2024-01-16T07:07:25;97726.75;;;-5.25;100.00
9474;BME280;8865;47.636;7.692;2024-01-16T07:09:51;97730.19;;;-5.26;100.00
9474;BME280;8865;47.636;7.692;2024-01-16T07:12:17;97722.78;;;-5.34;100.00
9474;BME280;8865;47.636;7.692;2024-01-16T07:14:44;97733.91;;;-5.36;100.00
9474;BME280;8865;47.636;7.692;2024-01-16T07:17:09;97739.13;;;-5.41;100.00
9474;BME280;8865;47.636;7.692;2024-01-16T07:19:35;97734.91;;;-5.42;100.00
9474;BME280;8865;47.636;7.692;2024-01-16T07:22:01;97735.63;;;-5.37;100.00
9474;BME280;8865;47.636;7.692;2024-01-16T07:24:28;97729.75;;;-5.41;100.00
9474;BME280;8865;47.636;7.692;2024-01-16T07:26:54;97725.22;;;-5.31;100.00
9474;BME280;8865;47.636;7.692;2024-01-16T07:29:20;97733.72;;;-5.30;100.00
9474;BME280;8865;47.636;7.692;2024-01-16T07:31:46;97738.03;;;-5.32;100.00
9474;BME280;8865;47.636;7.692;2024-01-16T07:34:15;97738.91;;;-5.33;100.00
9474;BME280;8865;47.636;7.692;2024-01-16T07:36:45;97740.53;;;-5.31;100.00
9474;BME280;8865;47.636;7.692;2024-01-16T07:39:12;97736.41;;;-5.35;100.00
9474;BME280;8865;47.636;7.692;2024-01-16T07:41:38;97736.16;;;-5.27;100.00
9474;BME280;8865;47.636;7.692;2024-01-16T07:44:05;97736.13;;;-5.26;100.00
9474;BME280;8865;47.636;7.692;2024-01-16T07:46:31;97740.16;;;-5.18;100.00
9474;BME280;8865;47.636;7.692;2024-01-16T07:48:57;97752.06;;;-5.17;100.00
9474;BME280;8865;47.636;7.692;2024-01-16T07:51:23;97748.84;;;-5.24;100.00
9474;BME280;8865;47.636;7.692;2024-01-16T07:53:59;97746.44;;;-5.29;100.00
9474;BME280;8865;47.636;7.692;2024-01-16T07:56:30;97751.38;;;-5.24;100.00
9474;BME280;8865;47.636;7.692;2024-01-16T07:58:56;97742.16;;;-5.28;100.00
9474;BME280;8865;47.636;7.692;2024-01-16T08:01:22;97737.91;;;-5.28;100.00
9474;BME280;8865;47.636;7.692;2024-01-16T08:03:48;97744.34;;;-5.16;100.00
9474;BME280;8865;47.636;7.692;2024-01-16T08:06:14;97739.91;;;-5.11;100.00
9474;BME280;8865;47.636;7.692;2024-01-16T08:08:40;97742.00;;;-4.95;100.00
9474;BME280;8865;47.636;7.692;2024-01-16T08:11:07;97732.41;;;-4.89;100.00
9474;BME280;8865;47.636;7.692;2024-01-16T08:13:33;97730.16;;;-4.71;100.00
9474;BME280;8865;47.636;7.692;2024-01-16T08:15:59;97722.28;;;-4.65;100.00
9474;BME280;8865;47.636;7.692;2024-01-16T08:18:25;97722.75;;;-4.54;100.00
9474;BME280;8865;47.636;7.692;2024-01-16T08:20:52;97714.44;;;-4.35;100.00
9474;BME280;8865;47.636;7.692;2024-01-16T08:23:18;97711.97;;;-4.13;100.00
9474;BME280;8865;47.636;7.692;2024-01-16T08:25:46;97711.09;;;-3.88;100.00
9474;BME280;8865;47.636;7.692;2024-01-16T08:28:13;97705.41;;;-3.73;100.00
9474;BME280;8865;47.636;7.692;2024-01-16T08:30:39;97703.09;;;-3.57;100.00
9474;BME280;8865;47.636;7.692;2024-01-16T08:33:06;97702.38;;;-3.38;100.00
9474;BME280;8865;47.636;7.692;2024-01-16T08:35:33;97702.50;;;-3.19;100.00
9474;BME280;8865;47.636;7.692;2024-01-16T08:37:59;97708.81;;;-3.06;100.00
9474;BME280;8865;47.636;7.692;2024-01-16T08:40:25;97707.22;;;-2.88;100.00
9474;BME280;8865;47.636;7.692;2024-01-16T08:42:55;97705.13;;;-2.78;100.00
9474;BME280;8865;47.636;7.692;2024-01-16T08:45:21;97705.41;;;-2.64;100.00
9474;BME280;8865;47.636;7.692;2024-01-16T08:47:47;97710.16;;;-2.55;100.00
9474;BME280;8865;47.636;7.692;2024-01-16T08:50:15;97707.06;;;-2.42;100.00
9474;BME280;8865;47.636;7.692;2024-01-16T08:52:41;97709.66;;;-2.23;100.00
9474;BME280;8865;47.636;7.692;2024-01-16T08:55:08;97711.28;;;-2.02;100.00
9474;BME280;8865;47.636;7.692;2024-01-16T08:57:37;97713.31;;;-1.89;100.00
9474;BME280;8865;47.636;7.692;2024-01-16T09:00:05;97707.75;;;-1.80;100.00
9474;BME280;8865;47.636;7.692;2024-01-16T09:02:31;97704.34;;;-1.62;100.00
9474;BME280;8865;47.636;7.692;2024-01-16T09:04:58;97693.72;;;-1.35;100.00
9474;BME280;8865;47.636;7.692;2024-01-16T09:07:25;97690.75;;;-1.08;100.00
9474;BME280;8865;47.636;7.692;2024-01-16T09:09:51;97678.44;;;-0.84;100.00
9474;BME280;8865;47.636;7.692;2024-01-16T09:12:17;97678.28;;;-0.46;100.00
9474;BME280;8865;47.636;7.692;2024-01-16T09:14:43;97681.38;;;-0.06;100.00
9474;BME280;8865;47.636;7.692;2024-01-16T09:17:09;97690.03;;;0.25;100.00
9474;BME280;8865;47.636;7.692;2024-01-16T09:19:35;97685.50;;;0.46;100.00
9474;BME280;8865;47.636;7.692;2024-01-16T09:22:03;97680.22;;;0.64;100.00
9474;BME280;8865;47.636;7.692;2024-01-16T09:24:30;97673.72;;;0.88;100.00
9474;BME280;8865;47.636;7.692;2024-01-16T09:26:56;97674.44;;;1.21;99.47
9474;BME280;8865;47.636;7.692;2024-01-16T09:29:24;97676.66;;;1.72;96.04
9474;BME280;8865;47.636;7.692;2024-01-16T09:31:50;97662.53;;;3.02;84.47
9474;BME280;8865;47.636;7.692;2024-01-16T09:34:20;97673.44;;;5.33;68.45
9474;BME280;8865;47.636;7.692;2024-01-16T09:36:46;97670.56;;;7.48;56.76
9474;BME280;8865;47.636;7.692;2024-01-16T09:39:12;97665.34;;;8.00;50.56
9474;BME280;8865;47.636;7.692;2024-01-16T09:41:40;97660.63;;;7.84;49.31
9474;BME280;8865;47.636;7.692;2024-01-16T09:44:07;97665.84;;;7.21;50.01
9474;BME280;8865;47.636;7.692;2024-01-16T09:46:34;97671.94;;;6.77;50.45
9474;BME280;8865;47.636;7.692;2024-01-16T09:49:03;97674.06;;;6.72;51.27
9474;BME280;8865;47.636;7.692;2024-01-16T09:51:29;97660.84;;;6.64;51.58
9474;BME280;8865;47.636;7.692;2024-01-16T09:53:55;97666.09;;;6.19;51.91
9474;BME280;8865;47.636;7.692;2024-01-16T09:56:23;97660.59;;;5.43;53.61
9474;BME280;8865;47.636;7.692;2024-01-16T09:58:59;97666.69;;;4.71;57.51
9474;BME280;8865;47.636;7.692;2024-01-16T10:01:28;97672.28;;;4.40;59.51
9474;BME280;8865;47.636;7.692;2024-01-16T10:03:56;97657.31;;;4.81;60.63
9474;BME280;8865;47.636;7.692;2024-01-16T10:06:23;97651.47;;;6.18;55.09
9474;BME280;8865;47.636;7.692;2024-01-16T10:08:49;97653.19;;;6.51;53.92
9474;BME280;8865;47.636;7.692;2024-01-16T10:11:16;97661.28;;;6.81;53.42
9474;BME280;8865;47.636;7.692;2024-01-16T10:13:44;97653.53;;;7.44;51.57
9474;BME280;8865;47.636;7.692;2024-01-16T10:16:10;97646.66;;;8.26;48.86
9474;BME280;8865;47.636;7.692;2024-01-16T10:18:36;97644.59;;;9.86;46.17
9474;BME280;8865;47.636;7.692;2024-01-16T10:21:04;97637.13;;;13.42;38.62
9474;BME280;8865;47.636;7.692;2024-01-16T10:23:31;97628.28;;;15.85;33.36
9474;BME280;8865;47.636;7.692;2024-01-16T10:26:11;97619.63;;;18.36;28.80
9474;BME280;8865;47.636;7.692;2024-01-16T10:28:39;97625.53;;;19.73;25.66
9474;BME280;8865;47.636;7.692;2024-01-16T10:31:08;97617.19;;;19.63;25.15
9474;BME280;8865;47.636;7.692;2024-01-16T10:33:34;97622.91;;;19.33;25.61
9474;BME280;8865;47.636;7.692;2024-01-16T10:38:40;97597.72;;;18.82;25.59
9474;BME280;8865;47.636;7.692;2024-01-16T10:41:16;97596.06;;;18.68;25.59
9474;BME280;8865;47.636;7.692;2024-01-16T10:43:43;97589.31;;;18.10;25.54
9474;BME280;8865;47.636;7.692;2024-01-16T10:46:14;97581.97;;;18.06;26.32
9474;BME280;8865;47.636;7.692;2024-01-16T10:48:58;97574.94;;;19.08;25.24
9474;BME280;8865;47.636;7.692;2024-01-16T10:51:26;97585.94;;;19.58;24.70
9474;BME280;8865;47.636;7.692;2024-01-16T10:54:02;97569.38;;;19.83;24.17
9474;BME280;8865;47.636;7.692;2024-01-16T10:56:31;97571.41;;;19.61;23.96
9474;BME280;8865;47.636;7.692;2024-01-16T10:59:30;97568.31;;;18.57;25.55
9474;BME280;8865;47.636;7.692;2024-01-16T11:02:02;97567.94;;;19.60;24.77
9474;BME280;8865;47.636;7.692;2024-01-16T11:04:30;97557.56;;;19.05;24.48
9474;BME280;8865;47.636;7.692;2024-01-16T11:06:57;97556.47;;;19.73;23.93
9474;BME280;8865;47.636;7.692;2024-01-16T11:09:24;97546.72;;;19.40;24.48
9474;BME280;8865;47.636;7.692;2024-01-16T11:11:53;97538.84;;;20.06;23.98
9474;BME280;8865;47.636;7.692;2024-01-16T11:14:19;97540.50;;;21.02;22.98
9474;BME280;8865;47.636;7.692;2024-01-16T11:16:49;97538.09;;;21.70;22.35
9474;BME280;8865;47.636;7.692;2024-01-16T11:19:17;97538.28;;;20.99;22.16
9474;BME280;8865;47.636;7.692;2024-01-16T11:21:44;97538.81;;;21.15;22.30
9474;BME280;8865;47.636;7.692;2024-01-16T11:24:12;97532.75;;;22.07;21.38
9474;BME280;8865;47.636;7.692;2024-01-16T11:26:41;97517.09;;;23.61;20.47
9474;BME280;8865;47.636;7.692;2024-01-16T11:31:52;97531.53;;;24.12;19.39
9474;BME280;8865;47.636;7.692;2024-01-16T11:37:27;97521.94;;;23.99;18.86
9474;BME280;8865;47.636;7.692;2024-01-16T11:42:43;97504.31;;;23.15;19.64
9474;BME280;8865;47.636;7.692;2024-01-16T11:45:47;97504.56;;;24.02;19.56
9474;BME280;8865;47.636;7.692;2024-01-16T11:48:15;97500.31;;;25.09;18.10
9474;BME280;8865;47.636;7.692;2024-01-16T11:50:42;97508.97;;;25.51;18.25
9474;BME280;8865;47.636;7.692;2024-01-16T11:53:08;97500.94;;;24.08;19.31
9474;BME280;8865;47.636;7.692;2024-01-16T11:55:51;97499.28;;;21.92;21.15
9474;BME280;8865;47.636;7.692;2024-01-16T12:00:57;97500.94;;;21.75;21.77
9474;BME280;8865;47.636;7.692;2024-01-16T12:03:23;97492.09;;;23.55;20.36
9474;BME280;8865;47.636;7.692;2024-01-16T12:05:56;97488.88;;;24.34;19.31
9474;BME280;8865;47.636;7.692;2024-01-16T12:08:23;97489.03;;;25.07;18.87
9474;BME280;8865;47.636;7.692;2024-01-16T12:10:49;97487.69;;;26.32;18.48
9474;BME280;8865;47.636;7.692;2024-01-16T12:13:15;97474.91;;;25.68;18.06
9474;BME280;8865;47.636;7.692;2024-01-16T12:15:41;97464.16;;;27.04;17.53
9474;BME280;8865;47.636;7.692;2024-01-16T12:18:08;97466.94;;;26.23;17.43
9474;BME280;8865;47.636;7.692;2024-01-16T12:20:36;97470.28;;;26.62;17.17
9474;BME280;8865;47.636;7.692;2024-01-16T12:23:04;97463.44;;;27.19;17.23
9474;BME280;8865;47.636;7.692;2024-01-16T12:25:35;97467.47;;;27.17;16.60
9474;BME280;8865;47.636;7.692;2024-01-16T12:28:05;97467.44;;;24.63;18.73
9474;BME280;8865;47.636;7.692;2024-01-16T12:30:37;97461.88;;;22.60;20.42
9474;BME280;8865;47.636;7.692;2024-01-16T12:33:08;97453.88;;;22.72;20.81
9474;BME280;8865;47.636;7.692;2024-01-16T12:35:37;97458.59;;;23.76;19.35
9474;BME280;8865;47.636;7.692;2024-01-16T12:38:06;97450.22;;;24.42;19.06
9474;BME280;8865;47.636;7.692;2024-01-16T12:40:36;97451.19;;;24.36;19.02
9474;BME280;8865;47.636;7.692;2024-01-16T12:43:03;97449.50;;;25.31;18.54
9474;BME280;8865;47.636;7.692;2024-01-16T12:45:30;97441.41;;;26.20;16.99
9474;BME280;8865;47.636;7.692;2024-01-16T12:47:57;97443.53;;;25.69;17.31
9474;BME280;8865;47.636;7.692;2024-01-16T12:50:25;97435.69;;;26.38;17.24
9474;BME280;8865;47.636;7.692;2024-01-16T12:53:03;97427.09;;;25.43;18.20
9474;BME280;8865;47.636;7.692;2024-01-16T12:55:31;97427.53;;;26.28;16.89
9474;BME280;8865;47.636;7.692;2024-01-16T12:58:19;97421.88;;;24.29;18.56
9474;BME280;8865;47.636;7.692;2024-01-16T13:00:47;97417.91;;;24.32;18.37
9474;BME280;8865;47.636;7.692;2024-01-16T13:05:43;97404.19;;;26.01;16.83
9474;BME280;8865;47.636;7.692;2024-01-16T13:08:09;97402.75;;;25.27;17.23
9474;BME280;8865;47.636;7.692;2024-01-16T13:10:36;97393.81;;;25.22;17.31
9474;BME280;8865;47.636;7.692;2024-01-16T13:15:46;97388.97;;;25.36;17.55
9474;BME280;8865;47.636;7.692;2024-01-16T13:18:25;97386.19;;;25.08;18.11
9474;BME280;8865;47.636;7.692;2024-01-16T13:20:53;97382.38;;;25.71;17.62
9474;BME280;8865;47.636;7.692;2024-01-16T13:23:20;97383.88;;;25.61;17.78
9474;BME280;8865;47.636;7.692;2024-01-16T13:25:48;97385.69;;;25.11;17.41
9474;BME280;8865;47.636;7.692;2024-01-16T13:28:15;97387.41;;;25.62;17.43
9474;BME280;8865;47.636;7.692;2024-01-16T13:30:41;97384.34;;;25.31;17.55
9474;BME280;8865;47.636;7.692;2024-01-16T13:33:08;97378.53;;;25.00;17.41
9474;BME280;8865;47.636;7.692;2024-01-16T13:35:35;97386.16;;;24.06;18.48